sensor_id;sensor_type;location;lat;lon;timestamp;pressure;altitude;pressure_sealevel;temperature;humidity
51297;BME280;37380;45.186;9.792;2022-12-07T00:00:39;100622.78;;;-0.26;100.00
51297;BME280;37380;45.186;9.792;2022-12-07T00:03:24;100995.25;;;1.97;100.00
51297;BME280;37380;45.186;9.792;2022-12-07T00:07:04;100598.09;;;-0.24;100.00
51297;BME280;37380;45.186;9.792;2022-12-07T00:09:35;100615.38;;;0.01;100.00
51297;BME280;37380;45.186;9.792;2022-12-07T00:12:21;100699.81;;;0.41;100.00
51297;BME280;37380;45.186;9.792;2022-12-07T00:15:14;100683.97;;;0.13;100.00
51297;BME280;37380;45.186;9.792;2022-12-07T00:17:44;100652.47;;;0.04;100.00
51297;BME280;37380;45.186;9.792;2022-12-07T00:20:30;100893.22;;;1.52;100.00
51297;BME280;37380;45.186;9.792;2022-12-07T00:23:02;100878.88;;;1.44;100.00
51297;BME280;37380;45.186;9.792;2022-12-07T00:25:46;100752.09;;;0.42;100.00
51297;BME280;37380;45.186;9.792;2022-12-07T00:28:35;100629.31;;;-0.08;100.00
51297;BME280;37380;45.186;9.792;2022-12-07T00:31:15;100620.78;;;0.15;100.00
51297;BME280;37380;45.186;9.792;2022-12-07T00:34:07;100740.09;;;0.88;100.00
51297;BME280;37380;45.186;9.792;2022-12-07T00:36:54;100853.34;;;1.35;100.00
51297;BME280;37380;45.186;9.792;2022-12-07T00:40:28;100822.81;;;1.51;100.00
51297;BME280;37380;45.186;9.792;2022-12-07T00:43:01;100840.03;;;1.17;100.00
51297;BME280;37380;45.186;9.792;2022-12-07T00:45:43;100605.53;;;-0.39;100.00
51297;BME280;37380;45.186;9.792;2022-12-07T00:49:26;100805.28;;;0.77;100.00
51297;BME280;37380;45.186;9.792;2022-12-07T00:53:06;100601.09;;;-0.30;100.00
51297;BME280;37380;45.186;9.792;2022-12-07T00:55:50;100689.50;;;0.30;100.00
51297;BME280;37380;45.186;9.792;2022-12-07T00:58:23;100716.78;;;0.51;100.00
51297;BME280;37380;45.186;9.792;2022-12-07T01:01:19;100635.88;;;-0.23;100.00
51297;BME280;37380;45.186;9.792;2022-12-07T01:06:51;100649.72;;;-0.09;100.00
51297;BME280;37380;45.186;9.792;2022-12-07T01:09:30;100733.25;;;0.53;100.00
51297;BME280;37380;45.186;9.792;2022-12-07T01:12:21;100647.78;;;0.10;100.00
51297;BME280;37380;45.186;9.792;2022-12-07T01:15:28;100688.47;;;0.28;100.00
51297;BME280;37380;45.186;9.792;2022-12-07T01:18:08;100590.78;;;-0.19;100.00
51297;BME280;37380;45.186;9.792;2022-12-07T01:21:32;100913.47;;;1.47;100.00
51297;BME280;37380;45.186;9.792;2022-12-07T01:25:12;100836.66;;;1.06;100.00
51297;BME280;37380;45.186;9.792;2022-12-07T01:27:42;100827.81;;;1.15;100.00
51297;BME280;37380;45.186;9.792;2022-12-07T01:30:25;100635.28;;;-0.31;100.00
51297;BME280;37380;45.186;9.792;2022-12-07T01:33:40;100998.63;;;1.84;100.00
51297;BME280;37380;45.186;9.792;2022-12-07T01:36:28;100617.88;;;-0.57;100.00
51297;BME280;37380;45.186;9.792;2022-12-07T01:39:13;100973.72;;;1.61;100.00
51297;BME280;37380;45.186;9.792;2022-12-07T01:41:46;100638.41;;;-0.57;100.00
51297;BME280;37380;45.186;9.792;2022-12-07T01:47:00;100830.41;;;1.15;100.00
51297;BME280;37380;45.186;9.792;2022-12-07T01:50:31;100717.13;;;0.44;100.00
51297;BME280;37380;45.186;9.792;2022-12-07T01:53:39;100690.19;;;0.39;100.00
51297;BME280;37380;45.186;9.792;2022-12-07T01:56:44;100707.06;;;0.35;100.00
51297;BME280;37380;45.186;9.792;2022-12-07T01:59:29;100991.78;;;2.08;100.00
51297;BME280;37380;45.186;9.792;2022-12-07T02:01:59;100608.75;;;-0.19;100.00
51297;BME280;37380;45.186;9.792;2022-12-07T02:04:55;100601.66;;;-0.34;100.00
51297;BME280;37380;45.186;9.792;2022-12-07T02:07:31;100607.03;;;-0.31;100.00
51297;BME280;37380;45.186;9.792;2022-12-07T02:10:25;100589.69;;;-0.45;100.00
51297;BME280;37380;45.186;9.792;2022-12-07T02:13:11;100948.19;;;1.76;100.00
51297;BME280;37380;45.186;9.792;2022-12-07T02:16:08;100950.91;;;1.89;100.00
51297;BME280;37380;45.186;9.792;2022-12-07T02:35:08;100953.91;;;1.15;100.00
51297;BME280;37380;45.186;9.792;2022-12-07T02:41:26;100638.41;;;-0.57;100.00
51297;BME280;37380;45.186;9.792;2022-12-07T02:44:24;100789.63;;;0.40;100.00
51297;BME280;37380;45.186;9.792;2022-12-07T02:47:26;100495.66;;;-1.44;100.00
51297;BME280;37380;45.186;9.792;2022-12-07T02:50:36;100785.91;;;0.25;100.00
51297;BME280;37380;45.186;9.792;2022-12-07T02:53:38;100775.09;;;-0.37;100.00
51297;BME280;37380;45.186;9.792;2022-12-07T02:56:44;100587.94;;;-1.54;100.00
51297;BME280;37380;45.186;9.792;2022-12-07T03:02:21;100931.75;;;1.05;100.00
51297;BME280;37380;45.186;9.792;2022-12-07T03:08:57;100793.72;;;0.26;100.00
51297;BME280;37380;45.186;9.792;2022-12-07T03:11:57;100563.88;;;-1.02;100.00
51297;BME280;37380;45.186;9.792;2022-12-07T03:14:37;100799.91;;;0.06;100.00
51297;BME280;37380;45.186;9.792;2022-12-07T03:17:13;100788.53;;;-0.08;100.00
51297;BME280;37380;45.186;9.792;2022-12-07T03:19:42;100863.28;;;0.39;100.00
51297;BME280;37380;45.186;9.792;2022-12-07T03:22:13;100928.38;;;0.72;100.00
51297;BME280;37380;45.186;9.792;2022-12-07T03:28:02;100651.44;;;-0.76;100.00
51297;BME280;37380;45.186;9.792;2022-12-07T03:31:08;100934.16;;;0.92;100.00
51297;BME280;37380;45.186;9.792;2022-12-07T03:34:16;100875.16;;;0.71;100.00
51297;BME280;37380;45.186;9.792;2022-12-07T03:37:26;100851.69;;;0.22;100.00
51297;BME280;37380;45.186;9.792;2022-12-07T03:40:37;100936.19;;;0.52;100.00
51297;BME280;37380;45.186;9.792;2022-12-07T03:43:17;100747.69;;;-0.27;100.00
51297;BME280;37380;45.186;9.792;2022-12-07T03:46:08;100920.59;;;0.60;100.00
51297;BME280;37380;45.186;9.792;2022-12-07T03:49:46;100919.09;;;0.74;100.00
51297;BME280;37380;45.186;9.792;2022-12-07T03:53:26;100587.38;;;-1.08;100.00
51297;BME280;37380;45.186;9.792;2022-12-07T03:56:00;100741.47;;;0.04;100.00
51297;BME280;37380;45.186;9.792;2022-12-07T03:58:36;100898.41;;;1.06;100.00
51297;BME280;37380;45.186;9.792;2022-12-07T04:01:03;100899.81;;;0.91;100.00
51297;BME280;37380;45.186;9.792;2022-12-07T04:03:30;100785.50;;;0.42;100.00
51297;BME280;37380;45.186;9.792;2022-12-07T04:05:57;100816.81;;;0.48;100.00
51297;BME280;37380;45.186;9.792;2022-12-07T04:08:25;100839.72;;;0.45;100.00
51297;BME280;37380;45.186;9.792;2022-12-07T04:10:53;100891.91;;;0.66;100.00
51297;BME280;37380;45.186;9.792;2022-12-07T04:13:20;100898.53;;;0.74;100.00
51297;BME280;37380;45.186;9.792;2022-12-07T04:15:47;100769.63;;;-0.20;100.00
51297;BME280;37380;45.186;9.792;2022-12-07T04:18:15;100760.59;;;0.07;100.00
51297;BME280;37380;45.186;9.792;2022-12-07T04:20:42;100889.69;;;0.71;100.00
51297;BME280;37380;45.186;9.792;2022-12-07T04:23:09;100910.63;;;0.53;100.00
51297;BME280;37380;45.186;9.792;2022-12-07T04:25:37;100907.81;;;0.50;100.00
51297;BME280;37380;45.186;9.792;2022-12-07T04:28:04;100887.44;;;0.75;100.00
51297;BME280;37380;45.186;9.792;2022-12-07T04:30:32;100909.03;;;0.99;100.00
51297;BME280;37380;45.186;9.792;2022-12-07T04:33:00;100848.13;;;0.76;100.00
51297;BME280;37380;45.186;9.792;2022-12-07T04:35:27;100772.72;;;-0.02;100.00
51297;BME280;37380;45.186;9.792;2022-12-07T04:37:54;100895.72;;;0.71;100.00
51297;BME280;37380;45.186;9.792;2022-12-07T04:40:21;100912.81;;;1.04;100.00
51297;BME280;37380;45.186;9.792;2022-12-07T04:42:50;100930.03;;;0.94;100.00
51297;BME280;37380;45.186;9.792;2022-12-07T04:45:17;100809.56;;;0.54;100.00
51297;BME280;37380;45.186;9.792;2022-12-07T04:47:52;100876.59;;;0.67;100.00
51297;BME280;37380;45.186;9.792;2022-12-07T04:50:53;100908.53;;;0.93;100.00
51297;BME280;37380;45.186;9.792;2022-12-07T04:53:47;100918.91;;;0.83;100.00
51297;BME280;37380;45.186;9.792;2022-12-07T04:56:22;100831.38;;;0.26;100.00
51297;BME280;37380;45.186;9.792;2022-12-07T04:59:16;100890.63;;;0.83;100.00
51297;BME280;37380;45.186;9.792;2022-12-07T05:01:44;100851.22;;;0.38;100.00
51297;BME280;37380;45.186;9.792;2022-12-07T05:04:12;100915.91;;;0.88;100.00
51297;BME280;37380;45.186;9.792;2022-12-07T05:06:39;100634.59;;;-1.16;100.00
51297;BME280;37380;45.186;9.792;2022-12-07T05:09:07;100901.72;;;0.38;100.00
51297;BME280;37380;45.186;9.792;2022-12-07T05:11:34;100822.69;;;-0.31;100.00
51297;BME280;37380;45.186;9.792;2022-12-07T05:14:08;100869.44;;;0.19;100.00
51297;BME280;37380;45.186;9.792;2022-12-07T05:16:36;100876.00;;;0.16;100.00
51297;BME280;37380;45.186;9.792;2022-12-07T05:19:04;100842.63;;;0.16;100.00
51297;BME280;37380;45.186;9.792;2022-12-07T05:21:31;100898.94;;;0.68;100.00
51297;BME280;37380;45.186;9.792;2022-12-07T05:23:58;100897.22;;;0.79;100.00
51297;BME280;37380;45.186;9.792;2022-12-07T05:26:27;100840.25;;;0.75;100.00
51297;BME280;37380;45.186;9.792;2022-12-07T05:28:56;100892.59;;;0.75;100.00
51297;BME280;37380;45.186;9.792;2022-12-07T05:31:25;100900.78;;;0.81;100.00
51297;BME280;37380;45.186;9.792;2022-12-07T05:33:53;100903.81;;;0.76;100.00
51297;BME280;37380;45.186;9.792;2022-12-07T05:36:21;100845.94;;;0.59;100.00
51297;BME280;37380;45.186;9.792;2022-12-07T05:38:49;100901.31;;;0.99;100.00
51297;BME280;37380;45.186;9.792;2022-12-07T05:41:18;100904.03;;;0.79;100.00
51297;BME280;37380;45.186;9.792;2022-12-07T05:44:04;100911.38;;;0.74;100.00
51297;BME280;37380;45.186;9.792;2022-12-07T05:46:32;100847.28;;;0.65;100.00
51297;BME280;37380;45.186;9.792;2022-12-07T05:49:06;100850.59;;;0.53;100.00
51297;BME280;37380;45.186;9.792;2022-12-07T05:52:07;100812.53;;;0.37;100.00
51297;BME280;37380;45.186;9.792;2022-12-07T05:55:01;100892.31;;;0.82;100.00
51297;BME280;37380;45.186;9.792;2022-12-07T05:57:28;100893.25;;;1.06;100.00
51297;BME280;37380;45.186;9.792;2022-12-07T05:59:56;100863.34;;;0.85;100.00
51297;BME280;37380;45.186;9.792;2022-12-07T06:02:23;100870.44;;;0.99;100.00
51297;BME280;37380;45.186;9.792;2022-12-07T06:04:50;100835.69;;;0.71;100.00
51297;BME280;37380;45.186;9.792;2022-12-07T06:07:24;100841.19;;;0.87;100.00
51297;BME280;37380;45.186;9.792;2022-12-07T06:10:18;100878.59;;;0.94;100.00
51297;BME280;37380;45.186;9.792;2022-12-07T06:12:45;100918.09;;;1.06;100.00
51297;BME280;37380;45.186;9.792;2022-12-07T06:15:13;100720.78;;;0.02;100.00
51297;BME280;37380;45.186;9.792;2022-12-07T06:17:40;100777.41;;;0.26;100.00
51297;BME280;37380;45.186;9.792;2022-12-07T06:20:07;100876.56;;;1.01;100.00
51297;BME280;37380;45.186;9.792;2022-12-07T06:22:35;100857.19;;;0.83;100.00
51297;BME280;37380;45.186;9.792;2022-12-07T06:25:01;100931.63;;;1.03;100.00
51297;BME280;37380;45.186;9.792;2022-12-07T06:27:34;100878.69;;;0.61;100.00
51297;BME280;37380;45.186;9.792;2022-12-07T06:30:02;100904.22;;;1.16;100.00
51297;BME280;37380;45.186;9.792;2022-12-07T06:32:41;100723.31;;;0.12;100.00
51297;BME280;37380;45.186;9.792;2022-12-07T06:35:42;100939.63;;;1.30;100.00
51297;BME280;37380;45.186;9.792;2022-12-07T06:38:37;100818.94;;;0.76;100.00
51297;BME280;37380;45.186;9.792;2022-12-07T06:41:04;100857.22;;;0.95;100.00
51297;BME280;37380;45.186;9.792;2022-12-07T06:43:32;100881.63;;;1.11;100.00
51297;BME280;37380;45.186;9.792;2022-12-07T06:46:07;100893.97;;;1.27;100.00
51297;BME280;37380;45.186;9.792;2022-12-07T06:49:08;100833.84;;;0.58;100.00
51297;BME280;37380;45.186;9.792;2022-12-07T06:52:02;100917.22;;;1.17;100.00
51297;BME280;37380;45.186;9.792;2022-12-07T06:54:36;100894.59;;;1.13;100.00
51297;BME280;37380;45.186;9.792;2022-12-07T06:57:37;100858.50;;;0.78;100.00
51297;BME280;37380;45.186;9.792;2022-12-07T07:00:32;100886.28;;;0.94;100.00
51297;BME280;37380;45.186;9.792;2022-12-07T07:03:02;100758.28;;;0.22;100.00
51297;BME280;37380;45.186;9.792;2022-12-07T07:05:29;100882.03;;;0.94;100.00
51297;BME280;37380;45.186;9.792;2022-12-07T07:07:57;100957.09;;;1.22;100.00
51297;BME280;37380;45.186;9.792;2022-12-07T07:10:44;100849.47;;;0.83;100.00
51297;BME280;37380;45.186;9.792;2022-12-07T07:13:12;100828.63;;;0.68;100.00
51297;BME280;37380;45.186;9.792;2022-12-07T07:15:46;100919.50;;;1.36;100.00
51297;BME280;37380;45.186;9.792;2022-12-07T07:18:40;100863.31;;;0.73;100.00
51297;BME280;37380;45.186;9.792;2022-12-07T07:21:08;100854.47;;;0.81;100.00
51297;BME280;37380;45.186;9.792;2022-12-07T07:23:35;100902.34;;;0.79;100.00
51297;BME280;37380;45.186;9.792;2022-12-07T07:26:03;100933.44;;;0.82;100.00
51297;BME280;37380;45.186;9.792;2022-12-07T07:28:30;100890.75;;;0.84;100.00
51297;BME280;37380;45.186;9.792;2022-12-07T07:31:04;100904.66;;;0.64;100.00
51297;BME280;37380;45.186;9.792;2022-12-07T07:34:05;100920.72;;;0.96;100.00
51297;BME280;37380;45.186;9.792;2022-12-07T07:36:35;100944.94;;;1.09;100.00
51297;BME280;37380;45.186;9.792;2022-12-07T07:39:03;100824.81;;;0.29;100.00
51297;BME280;37380;45.186;9.792;2022-12-07T07:41:32;100778.44;;;0.06;100.00
51297;BME280;37380;45.186;9.792;2022-12-07T07:44:03;100885.88;;;0.99;100.00
51297;BME280;37380;45.186;9.792;2022-12-07T07:46:30;100904.03;;;0.79;100.00
51297;BME280;37380;45.186;9.792;2022-12-07T07:49:04;100931.97;;;1.08;100.00
51297;BME280;37380;45.186;9.792;2022-12-07T07:52:06;100910.69;;;1.10;100.00
51297;BME280;37380;45.186;9.792;2022-12-07T07:55:07;100934.06;;;1.47;100.00
51297;BME280;37380;45.186;9.792;2022-12-07T07:57:55;100889.66;;;1.04;100.00
51297;BME280;37380;45.186;9.792;2022-12-07T08:00:23;100765.06;;;-0.12;100.00
51297;BME280;37380;45.186;9.792;2022-12-07T08:02:50;100879.88;;;0.55;100.00
51297;BME280;37380;45.186;9.792;2022-12-07T08:05:17;100923.31;;;0.96;100.00
51297;BME280;37380;45.186;9.792;2022-12-07T08:07:44;100933.78;;;1.21;100.00
51297;BME280;37380;45.186;9.792;2022-12-07T08:10:13;100816.59;;;0.79;100.00
51297;BME280;37380;45.186;9.792;2022-12-07T08:12:41;100988.97;;;1.93;100.00
51297;BME280;37380;45.186;9.792;2022-12-07T08:15:29;100984.50;;;2.02;100.00
51297;BME280;37380;45.186;9.792;2022-12-07T08:17:57;100941.59;;;1.10;100.00
51297;BME280;37380;45.186;9.792;2022-12-07T08:20:32;100959.91;;;1.37;100.00
51297;BME280;37380;45.186;9.792;2022-12-07T08:23:33;100971.19;;;1.39;100.00
51297;BME280;37380;45.186;9.792;2022-12-07T08:26:27;100970.13;;;1.59;100.00
51297;BME280;37380;45.186;9.792;2022-12-07T08:28:54;100812.47;;;0.47;100.00
51297;BME280;37380;45.186;9.792;2022-12-07T08:31:28;100956.97;;;1.32;100.00
51297;BME280;37380;45.186;9.792;2022-12-07T08:34:26;100998.50;;;1.94;100.00
51297;BME280;37380;45.186;9.792;2022-12-07T08:36:53;100963.22;;;1.93;100.00
51297;BME280;37380;45.186;9.792;2022-12-07T08:39:20;100965.91;;;2.07;100.00
51297;BME280;37380;45.186;9.792;2022-12-07T08:41:57;100772.88;;;1.02;100.00
51297;BME280;37380;45.186;9.792;2022-12-07T08:44:24;100980.22;;;1.79;100.00
51297;BME280;37380;45.186;9.792;2022-12-07T08:47:01;100885.94;;;1.46;100.00
51297;BME280;37380;45.186;9.792;2022-12-07T08:50:04;100907.97;;;1.31;100.00
51297;BME280;37380;45.186;9.792;2022-12-07T08:53:07;100960.63;;;1.93;100.00
51297;BME280;37380;45.186;9.792;2022-12-07T08:55:47;101008.25;;;2.22;100.00
51297;BME280;37380;45.186;9.792;2022-12-07T08:58:16;100931.25;;;2.15;100.00
51297;BME280;37380;45.186;9.792;2022-12-07T09:00:49;100835.28;;;1.82;100.00
51297;BME280;37380;45.186;9.792;2022-12-07T09:03:43;100947.94;;;2.32;100.00
51297;BME280;37380;45.186;9.792;2022-12-07T09:06:18;100999.84;;;2.36;100.00
51297;BME280;37380;45.186;9.792;2022-12-07T09:09:13;101008.91;;;2.31;100.00
51297;BME280;37380;45.186;9.792;2022-12-07T09:11:41;100909.91;;;1.80;100.00
51297;BME280;37380;45.186;9.792;2022-12-07T09:14:08;101013.63;;;2.25;100.00
51297;BME280;37380;45.186;9.792;2022-12-07T09:16:47;100965.09;;;1.61;100.00
51297;BME280;37380;45.186;9.792;2022-12-07T09:19:48;101004.75;;;1.74;100.00
51297;BME280;37380;45.186;9.792;2022-12-07T09:22:49;100977.97;;;1.49;100.00
51297;BME280;37380;45.186;9.792;2022-12-07T09:25:23;100943.41;;;1.69;100.00
51297;BME280;37380;45.186;9.792;2022-12-07T09:27:57;100934.41;;;2.11;100.00
51297;BME280;37380;45.186;9.792;2022-12-07T09:30:27;101015.94;;;2.69;100.00
51297;BME280;37380;45.186;9.792;2022-12-07T09:32:56;100982.59;;;1.88;100.00
51297;BME280;37380;45.186;9.792;2022-12-07T09:35:24;100975.06;;;1.68;100.00
51297;BME280;37380;45.186;9.792;2022-12-07T09:37:51;100964.53;;;1.76;100.00
51297;BME280;37380;45.186;9.792;2022-12-07T09:40:20;101023.16;;;2.38;100.00
51297;BME280;37380;45.186;9.792;2022-12-07T09:42:51;101017.91;;;2.13;100.00
51297;BME280;37380;45.186;9.792;2022-12-07T09:45:27;100992.97;;;2.48;100.00
51297;BME280;37380;45.186;9.792;2022-12-07T09:48:04;100981.97;;;2.63;100.00
51297;BME280;37380;45.186;9.792;2022-12-07T09:51:00;101002.28;;;2.95;100.00
51297;BME280;37380;45.186;9.792;2022-12-07T09:53:30;101003.44;;;3.37;100.00
51297;BME280;37380;45.186;9.792;2022-12-07T09:56:06;100958.00;;;3.27;100.00
51297;BME280;37380;45.186;9.792;2022-12-07T09:59:16;100960.13;;;2.83;100.00
51297;BME280;37380;45.186;9.792;2022-12-07T10:04:54;100963.50;;;3.32;100.00
51297;BME280;37380;45.186;9.792;2022-12-07T10:07:23;100975.41;;;3.05;100.00
51297;BME280;37380;45.186;9.792;2022-12-07T10:09:50;100908.78;;;2.37;100.00
51297;BME280;37380;45.186;9.792;2022-12-07T10:12:18;100908.91;;;2.39;100.00
51297;BME280;37380;45.186;9.792;2022-12-07T10:15:03;100757.63;;;1.52;100.00
51297;BME280;37380;45.186;9.792;2022-12-07T10:17:47;100977.91;;;3.03;100.00
51297;BME280;37380;45.186;9.792;2022-12-07T10:20:42;100933.69;;;2.74;100.00
51297;BME280;37380;45.186;9.792;2022-12-07T10:23:17;100956.50;;;2.92;100.00
51297;BME280;37380;45.186;9.792;2022-12-07T10:25:44;100958.28;;;2.93;100.00
51297;BME280;37380;45.186;9.792;2022-12-07T10:28:17;100855.91;;;2.81;100.00
51297;BME280;37380;45.186;9.792;2022-12-07T10:33:30;100971.41;;;3.60;100.00
51297;BME280;37380;45.186;9.792;2022-12-07T10:39:55;100967.78;;;3.45;100.00
51297;BME280;37380;45.186;9.792;2022-12-07T10:42:25;100910.72;;;2.90;100.00
51297;BME280;37380;45.186;9.792;2022-12-07T10:47:46;100956.13;;;3.90;100.00
51297;BME280;37380;45.186;9.792;2022-12-07T10:50:31;100950.44;;;3.95;100.00
51297;BME280;37380;45.186;9.792;2022-12-07T10:53:12;100950.16;;;3.77;100.00
51297;BME280;37380;45.186;9.792;2022-12-07T11:09:50;100933.75;;;3.77;100.00
51297;BME280;37380;45.186;9.792;2022-12-07T11:13:09;100935.88;;;3.96;100.00
51297;BME280;37380;45.186;9.792;2022-12-07T11:22:32;100930.38;;;5.45;100.00
51297;BME280;37380;45.186;9.792;2022-12-07T11:25:24;100929.25;;;5.12;100.00
51297;BME280;37380;45.186;9.792;2022-12-07T11:30:46;100913.19;;;4.46;100.00
51297;BME280;37380;45.186;9.792;2022-12-07T11:33:33;100882.13;;;4.18;100.00
51297;BME280;37380;45.186;9.792;2022-12-07T11:38:44;100720.84;;;3.07;100.00
51297;BME280;37380;45.186;9.792;2022-12-07T11:41:22;100915.28;;;4.52;100.00
51297;BME280;37380;45.186;9.792;2022-12-07T11:43:59;100868.66;;;4.37;100.00
51297;BME280;37380;45.186;9.792;2022-12-07T11:52:02;100844.13;;;4.17;100.00
51297;BME280;37380;45.186;9.792;2022-12-07T11:54:38;100881.91;;;4.28;100.00
51297;BME280;37380;45.186;9.792;2022-12-07T11:57:37;100886.19;;;4.56;100.00
51297;BME280;37380;45.186;9.792;2022-12-07T12:00:41;100863.97;;;5.32;100.00
51297;BME280;37380;45.186;9.792;2022-12-07T12:03:45;100858.09;;;5.64;100.00
51297;BME280;37380;45.186;9.792;2022-12-07T12:06:47;100875.94;;;5.75;100.00
51297;BME280;37380;45.186;9.792;2022-12-07T12:10:25;100786.25;;;5.47;100.00
51297;BME280;37380;45.186;9.792;2022-12-07T12:14:21;100862.84;;;5.88;100.00
51297;BME280;37380;45.186;9.792;2022-12-07T12:17:20;100865.28;;;6.16;100.00
51297;BME280;37380;45.186;9.792;2022-12-07T12:25:27;100856.59;;;5.99;100.00
51297;BME280;37380;45.186;9.792;2022-12-07T12:27:58;100851.03;;;6.08;100.00
51297;BME280;37380;45.186;9.792;2022-12-07T12:33:26;100861.28;;;6.38;100.00
51297;BME280;37380;45.186;9.792;2022-12-07T12:36:46;100853.66;;;5.78;100.00
51297;BME280;37380;45.186;9.792;2022-12-07T12:39:16;100828.06;;;4.94;100.00
51297;BME280;37380;45.186;9.792;2022-12-07T12:41:55;100847.91;;;5.08;100.00
51297;BME280;37380;45.186;9.792;2022-12-07T12:47:10;100847.47;;;4.58;100.00
51297;BME280;37380;45.186;9.792;2022-12-07T12:50:20;100840.81;;;4.48;100.00
51297;BME280;37380;45.186;9.792;2022-12-07T12:53:01;100842.28;;;4.43;100.00
51297;BME280;37380;45.186;9.792;2022-12-07T12:58:48;100836.75;;;4.51;100.00
51297;BME280;37380;45.186;9.792;2022-12-07T13:01:43;100738.28;;;3.92;100.00
51297;BME280;37380;45.186;9.792;2022-12-07T13:04:56;100753.25;;;4.54;100.00
51297;BME280;37380;45.186;9.792;2022-12-07T13:08:04;100741.91;;;4.09;100.00
51297;BME280;37380;45.186;9.792;2022-12-07T13:10:44;100799.69;;;4.38;100.00
51297;BME280;37380;45.186;9.792;2022-12-07T13:15:50;100822.13;;;4.52;100.00
51297;BME280;37380;45.186;9.792;2022-12-07T13:31:51;100792.47;;;4.90;100.00
51297;BME280;37380;45.186;9.792;2022-12-07T13:34:37;100796.91;;;4.35;100.00
51297;BME280;37380;45.186;9.792;2022-12-07T13:39:46;100804.59;;;5.06;100.00
51297;BME280;37380;45.186;9.792;2022-12-07T13:42:48;100791.06;;;5.41;100.00
51297;BME280;37380;45.186;9.792;2022-12-07T13:45:57;100666.81;;;4.96;100.00
51297;BME280;37380;45.186;9.792;2022-12-07T13:48:50;100734.22;;;5.59;100.00
51297;BME280;37380;45.186;9.792;2022-12-07T13:51:52;100762.13;;;5.79;100.00
51297;BME280;37380;45.186;9.792;2022-12-07T13:54:48;100806.19;;;6.27;100.00
51297;BME280;37380;45.186;9.792;2022-12-07T13:57:28;100814.22;;;6.15;100.00
51297;BME280;37380;45.186;9.792;2022-12-07T14:00:30;100733.16;;;5.72;100.00
51297;BME280;37380;45.186;9.792;2022-12-07T14:03:34;100756.28;;;5.83;100.00
51297;BME280;37380;45.186;9.792;2022-12-07T14:06:35;100764.94;;;5.67;100.00
51297;BME280;37380;45.186;9.792;2022-12-07T14:09:29;100615.25;;;4.85;100.00
51297;BME280;37380;45.186;9.792;2022-12-07T14:11:57;100705.44;;;5.23;100.00
51297;BME280;37380;45.186;9.792;2022-12-07T14:14:28;100760.41;;;5.80;100.00
51297;BME280;37380;45.186;9.792;2022-12-07T14:17:18;100808.13;;;5.98;100.00
51297;BME280;37380;45.186;9.792;2022-12-07T14:19:52;100803.75;;;5.97;100.00
51297;BME280;37380;45.186;9.792;2022-12-07T14:22:31;100793.59;;;6.02;100.00
51297;BME280;37380;45.186;9.792;2022-12-07T14:27:58;100812.38;;;5.66;100.00
51297;BME280;37380;45.186;9.792;2022-12-07T14:30:34;100800.00;;;5.46;100.00
51297;BME280;37380;45.186;9.792;2022-12-07T14:33:35;100771.59;;;5.48;100.00
51297;BME280;37380;45.186;9.792;2022-12-07T14:36:11;100807.47;;;5.71;100.00
51297;BME280;37380;45.186;9.792;2022-12-07T14:38:39;100811.63;;;5.23;100.00
51297;BME280;37380;45.186;9.792;2022-12-07T14:41:17;100758.09;;;4.63;100.00
51297;BME280;37380;45.186;9.792;2022-12-07T14:44:33;100801.34;;;4.65;100.00
51297;BME280;37380;45.186;9.792;2022-12-07T14:47:01;100785.22;;;4.84;100.00
51297;BME280;37380;45.186;9.792;2022-12-07T14:49:56;100803.97;;;4.95;100.00
51297;BME280;37380;45.186;9.792;2022-12-07T14:53:00;100767.72;;;4.95;100.00
51297;BME280;37380;45.186;9.792;2022-12-07T14:56:11;100818.16;;;5.31;100.00
51297;BME280;37380;45.186;9.792;2022-12-07T14:59:12;100780.13;;;5.15;100.00
51297;BME280;37380;45.186;9.792;2022-12-07T15:02:14;100798.50;;;5.20;100.00
51297;BME280;37380;45.186;9.792;2022-12-07T15:04:59;100785.66;;;5.21;100.00
51297;BME280;37380;45.186;9.792;2022-12-07T15:08:03;100807.16;;;5.20;100.00
51297;BME280;37380;45.186;9.792;2022-12-07T15:10:58;100800.31;;;5.06;100.00
51297;BME280;37380;45.186;9.792;2022-12-07T15:13:25;100787.00;;;5.00;100.00
51297;BME280;37380;45.186;9.792;2022-12-07T15:16:13;100719.69;;;4.41;100.00
51297;BME280;37380;45.186;9.792;2022-12-07T15:18:42;100746.81;;;4.62;100.00
51297;BME280;37380;45.186;9.792;2022-12-07T15:21:37;100802.88;;;4.76;100.00
51297;BME280;37380;45.186;9.792;2022-12-07T15:24:38;100831.81;;;4.99;100.00
51297;BME280;37380;45.186;9.792;2022-12-07T15:27:33;100809.50;;;4.86;100.00
51297;BME280;37380;45.186;9.792;2022-12-07T15:30:00;100768.03;;;4.57;100.00
51297;BME280;37380;45.186;9.792;2022-12-07T15:32:28;100721.38;;;4.25;100.00
51297;BME280;37380;45.186;9.792;2022-12-07T15:34:56;100703.19;;;3.96;100.00
51297;BME280;37380;45.186;9.792;2022-12-07T15:37:23;100677.47;;;3.56;100.00
51297;BME280;37380;45.186;9.792;2022-12-07T15:39:50;100714.25;;;3.93;100.00
51297;BME280;37380;45.186;9.792;2022-12-07T15:42:18;100799.06;;;4.42;100.00
51297;BME280;37380;45.186;9.792;2022-12-07T15:44:52;100757.66;;;4.27;100.00
51297;BME280;37380;45.186;9.792;2022-12-07T15:47:54;100770.34;;;4.37;100.00
51297;BME280;37380;45.186;9.792;2022-12-07T15:50:48;100804.56;;;4.33;100.00
51297;BME280;37380;45.186;9.792;2022-12-07T15:53:42;100794.69;;;4.41;100.00
51297;BME280;37380;45.186;9.792;2022-12-07T15:56:09;100779.63;;;4.34;100.00
51297;BME280;37380;45.186;9.792;2022-12-07T15:58:36;100680.88;;;3.83;100.00
51297;BME280;37380;45.186;9.792;2022-12-07T16:01:17;100816.09;;;4.66;100.00
51297;BME280;37380;45.186;9.792;2022-12-07T16:04:19;100801.31;;;4.50;100.00
51297;BME280;37380;45.186;9.792;2022-12-07T16:07:13;100735.53;;;4.17;100.00